createdAt,value
2018-06-21T00:01:16.104Z,63.40
2018-06-21T00:03:43.687Z,64.20
2018-06-21T00:06:12.435Z,64.20
2018-06-21T00:08:40.055Z,64.40
2018-06-21T00:11:07.630Z,64.60
2018-06-21T00:13:35.184Z,64.40
2018-06-21T00:16:02.867Z,64.10
2018-06-21T00:18:30.511Z,64.10
2018-06-21T00:20:58.162Z,64.20
2018-06-21T00:23:25.759Z,64.30
2018-06-21T00:25:53.313Z,64.40
2018-06-21T00:28:20.939Z,64.20
2018-06-21T00:30:48.498Z,64.50
2018-06-21T00:33:16.073Z,64.40
2018-06-21T00:35:43.670Z,64.40
2018-06-21T00:38:11.222Z,64.70
2018-06-21T00:40:38.802Z,64.40
2018-06-21T00:43:06.325Z,64.80
2018-06-21T00:45:33.952Z,65.10
2018-06-21T00:48:01.527Z,65.10
2018-06-21T00:50:29.237Z,65.10
2018-06-21T00:52:56.742Z,65.20
2018-06-21T00:55:35.704Z,65.30
2018-06-21T00:58:03.304Z,65.20
2018-06-21T01:00:30.935Z,65.30
2018-06-21T01:02:58.528Z,65.30
2018-06-21T01:05:26.064Z,65.10
2018-06-21T01:07:53.595Z,65.10
2018-06-21T01:10:21.148Z,64.70
2018-06-21T01:12:48.784Z,64.90
2018-06-21T01:15:16.505Z,64.80
2018-06-21T01:17:43.996Z,65.10
2018-06-21T01:20:11.595Z,65.20
2018-06-21T01:22:39.183Z,65.00
2018-06-21T01:25:06.732Z,65.10
2018-06-21T01:27:34.380Z,65.00
2018-06-21T01:30:02.027Z,66.00
2018-06-21T01:32:29.601Z,65.40
2018-06-21T01:34:57.155Z,65.50
2018-06-21T01:37:24.687Z,65.60
2018-06-21T01:39:52.304Z,65.70
2018-06-21T01:42:19.967Z,65.90
2018-06-21T01:44:47.543Z,65.70
2018-06-21T01:47:15.059Z,65.90
2018-06-21T01:49:42.605Z,66.20
2018-06-21T01:52:10.158Z,66.10
2018-06-21T01:54:37.598Z,66.30
2018-06-21T01:57:05.250Z,66.70
2018-06-21T01:59:32.805Z,66.40
2018-06-21T02:02:00.362Z,66.10
2018-06-21T02:04:27.861Z,66.30
2018-06-21T02:06:55.381Z,66.60
2018-06-21T02:09:22.924Z,66.80
2018-06-21T02:11:50.518Z,66.90
2018-06-21T02:14:18.083Z,67.20
2018-06-21T02:16:45.657Z,67.70
2018-06-21T02:19:13.258Z,68.50
2018-06-21T02:21:40.851Z,68.40
2018-06-21T02:24:08.504Z,68.50
2018-06-21T02:26:36.052Z,68.20
2018-06-21T02:29:03.663Z,68.30
2018-06-21T02:31:31.264Z,68.30
2018-06-21T02:33:58.878Z,67.80
2018-06-21T02:36:26.343Z,68.20
2018-06-21T02:38:53.916Z,68.20
2018-06-21T02:41:21.486Z,68.30
2018-06-21T02:43:49.042Z,68.10
2018-06-21T02:46:16.533Z,68.50
2018-06-21T02:48:44.171Z,68.60
2018-06-21T02:51:11.798Z,68.30
2018-06-21T02:53:39.353Z,68.00
2018-06-21T02:56:06.985Z,68.10
2018-06-21T02:58:34.546Z,68.40
2018-06-21T03:01:02.241Z,68.10
2018-06-21T03:03:29.812Z,67.90
2018-06-21T03:05:57.420Z,68.30
2018-06-21T03:08:25.036Z,68.30
2018-06-21T03:10:52.612Z,68.50
2018-06-21T03:13:20.152Z,68.50
2018-06-21T03:15:47.655Z,69.00
2018-06-21T03:18:15.133Z,69.00
2018-06-21T03:20:42.725Z,69.40
2018-06-21T03:23:10.260Z,69.30
2018-06-21T03:25:38.865Z,69.10
2018-06-21T03:28:06.343Z,69.40
2018-06-21T03:30:33.927Z,69.50
2018-06-21T03:33:01.439Z,69.70
2018-06-21T03:35:29.073Z,69.80
2018-06-21T03:37:56.601Z,69.80
2018-06-21T03:40:24.201Z,69.90
2018-06-21T03:42:51.768Z,70.30
2018-06-21T03:45:19.336Z,70.30
2018-06-21T03:47:46.889Z,70.60
2018-06-21T03:50:15.263Z,70.00
2018-06-21T03:52:42.908Z,69.80
2018-06-21T03:55:10.403Z,70.20
2018-06-21T03:57:37.995Z,70.60
2018-06-21T04:00:05.759Z,70.60
2018-06-21T04:02:33.415Z,70.30
2018-06-21T04:05:01.003Z,70.30
2018-06-21T04:07:28.594Z,70.20
2018-06-21T04:09:57.211Z,70.40
2018-06-21T04:12:24.857Z,70.20
2018-06-21T04:14:52.414Z,69.80
2018-06-21T04:17:20.004Z,70.30
2018-06-21T04:19:47.548Z,70.20
2018-06-21T04:22:15.135Z,70.10
2018-06-21T04:24:42.680Z,70.10
2018-06-21T04:27:10.165Z,70.10
2018-06-21T04:29:37.734Z,70.10
2018-06-21T04:32:05.265Z,70.00
2018-06-21T04:34:32.887Z,70.30
2018-06-21T04:37:00.432Z,70.60
2018-06-21T04:39:28.042Z,70.50
2018-06-21T04:41:55.758Z,70.20
2018-06-21T04:44:23.390Z,70.30
2018-06-21T04:46:50.961Z,70.20
2018-06-21T04:49:18.605Z,70.20
2018-06-21T04:51:46.118Z,70.90
2018-06-21T04:54:13.589Z,70.70
2018-06-21T04:56:41.123Z,70.40
2018-06-21T04:59:08.702Z,71.00
2018-06-21T05:01:36.324Z,69.80
2018-06-21T05:04:03.916Z,70.20
2018-06-21T05:06:31.551Z,71.50
2018-06-21T05:08:59.102Z,71.00
2018-06-21T05:11:26.714Z,72.80
2018-06-21T05:13:54.277Z,73.10
2018-06-21T05:16:23.958Z,73.40
2018-06-21T05:18:51.502Z,72.50
2018-06-21T05:21:19.105Z,71.90
2018-06-21T05:23:46.687Z,73.20
2018-06-21T05:26:16.397Z,74.00
2018-06-21T05:28:44.214Z,73.30
2018-06-21T05:31:11.812Z,73.50
2018-06-21T05:33:39.343Z,72.90
2018-06-21T05:36:06.856Z,74.30
2018-06-21T05:38:34.363Z,73.30
2018-06-21T05:41:01.935Z,73.50
2018-06-21T05:43:29.419Z,73.20
2018-06-21T05:45:58.065Z,71.70
2018-06-21T05:48:25.584Z,72.40
2018-06-21T05:50:53.061Z,72.10
2018-06-21T05:53:20.628Z,71.20
2018-06-21T05:55:48.099Z,71.80
2018-06-21T05:58:15.600Z,70.50
2018-06-21T06:00:43.073Z,68.90
2018-06-21T06:03:10.598Z,67.30
2018-06-21T06:05:38.130Z,66.70
2018-06-21T06:08:06.798Z,66.90
2018-06-21T06:10:34.346Z,66.10
2018-06-21T06:13:01.925Z,63.50
2018-06-21T06:15:29.534Z,61.60
2018-06-21T06:17:56.998Z,62.80
2018-06-21T06:20:24.517Z,63.50
2018-06-21T06:22:52.098Z,62.90
2018-06-21T06:25:20.703Z,63.00
2018-06-21T06:27:48.288Z,63.70
2018-06-21T06:30:15.867Z,62.10
2018-06-21T06:32:43.316Z,61.10
2018-06-21T06:35:10.876Z,61.00
2018-06-21T06:37:39.390Z,61.90
2018-06-21T06:40:06.967Z,61.90
2018-06-21T06:42:34.473Z,58.50
2018-06-21T06:45:01.976Z,58.60
2018-06-21T06:47:29.490Z,59.20
2018-06-21T06:49:57.230Z,59.20
2018-06-21T06:52:24.969Z,57.80
2018-06-21T06:54:52.527Z,59.00
2018-06-21T06:57:20.088Z,57.80
2018-06-21T06:59:47.702Z,58.70
2018-06-21T07:02:15.300Z,57.80
2018-06-21T07:04:42.926Z,55.70
2018-06-21T07:07:10.449Z,57.10
2018-06-21T07:09:39.023Z,57.30
2018-06-21T07:12:06.594Z,56.10
2018-06-21T07:14:34.257Z,55.80
2018-06-21T07:17:01.721Z,56.60
2018-06-21T07:19:29.415Z,56.00
2018-06-21T07:21:56.952Z,55.30
2018-06-21T07:24:24.494Z,56.00
2018-06-21T07:26:52.062Z,56.00
2018-06-21T07:29:19.586Z,57.40
2018-06-21T07:31:47.180Z,56.10
2018-06-21T07:34:14.749Z,57.30
2018-06-21T07:36:42.364Z,55.70
2018-06-21T07:39:10.182Z,57.20
2018-06-21T07:41:37.785Z,56.20
2018-06-21T07:44:05.490Z,55.50
2018-06-21T07:46:33.674Z,56.10
2018-06-21T07:49:01.466Z,55.80
2018-06-21T07:51:28.974Z,54.80
2018-06-21T07:53:56.566Z,55.50
2018-06-21T07:56:24.123Z,54.60
2018-06-21T07:58:51.657Z,52.50
2018-06-21T08:01:19.280Z,53.00
2018-06-21T08:03:46.929Z,53.70
2018-06-21T08:06:14.471Z,52.20
2018-06-21T08:08:41.989Z,52.40
2018-06-21T08:11:09.574Z,52.60
2018-06-21T08:13:37.075Z,53.80
2018-06-21T08:16:04.678Z,54.90
2018-06-21T08:18:32.245Z,53.30
2018-06-21T08:20:59.822Z,50.70
2018-06-21T08:23:27.421Z,50.70
2018-06-21T08:25:54.972Z,50.70
2018-06-21T08:28:22.582Z,51.20
2018-06-21T08:30:50.110Z,52.30
2018-06-21T08:33:18.645Z,53.80
2018-06-21T08:35:46.099Z,53.30
2018-06-21T08:38:13.621Z,50.90
2018-06-21T08:40:41.238Z,52.50
2018-06-21T08:43:08.773Z,51.30
2018-06-21T08:45:37.292Z,51.30
2018-06-21T08:48:04.859Z,51.90
2018-06-21T08:50:32.427Z,50.90
2018-06-21T08:52:59.994Z,50.60
2018-06-21T08:55:27.590Z,50.60
2018-06-21T08:57:56.187Z,51.80
2018-06-21T09:00:23.771Z,52.60
2018-06-21T09:02:51.286Z,50.50
2018-06-21T09:05:18.778Z,48.50
2018-06-21T09:07:46.390Z,49.50
2018-06-21T09:10:13.914Z,51.10
2018-06-21T09:12:41.440Z,49.50
2018-06-21T09:15:09.901Z,50.60
2018-06-21T09:17:39.497Z,48.30
2018-06-21T09:20:07.055Z,49.80
2018-06-21T09:22:34.606Z,49.20
2018-06-21T09:25:02.380Z,49.00
2018-06-21T09:27:30.292Z,48.00
2018-06-21T09:29:57.998Z,47.70
2018-06-21T09:32:27.920Z,48.60
2018-06-21T09:34:55.503Z,47.90
2018-06-21T09:37:28.571Z,48.90
2018-06-21T09:40:01.710Z,47.90
2018-06-21T09:42:34.918Z,48.60
2018-06-21T09:45:02.418Z,47.40
2018-06-21T09:47:36.632Z,46.20
2018-06-21T09:50:04.168Z,46.90
2018-06-21T09:52:31.673Z,46.10
2018-06-21T09:54:59.178Z,46.50
2018-06-21T09:57:26.721Z,45.90
2018-06-21T09:59:54.405Z,46.00
2018-06-21T10:02:21.996Z,42.90
2018-06-21T10:04:49.480Z,46.50
2018-06-21T10:07:16.975Z,43.60
2018-06-21T10:09:44.533Z,45.30
2018-06-21T10:12:12.194Z,45.10
2018-06-21T10:14:39.764Z,45.10
2018-06-21T10:17:08.682Z,43.60
2018-06-21T10:19:39.600Z,43.90
2018-06-21T10:22:07.328Z,43.70
2018-06-21T10:24:34.848Z,44.10
2018-06-21T10:27:02.440Z,44.70
2018-06-21T10:29:30.164Z,45.20
2018-06-21T10:31:57.678Z,44.50
2018-06-21T10:34:25.227Z,44.80
2018-06-21T10:36:52.767Z,44.60
2018-06-21T10:39:20.308Z,45.20
2018-06-21T10:41:47.917Z,45.30
2018-06-21T10:44:15.407Z,45.70
2018-06-21T10:46:42.890Z,47.00
2018-06-21T10:49:10.496Z,45.20
2018-06-21T10:51:38.144Z,44.50
2018-06-21T10:54:05.772Z,45.00
2018-06-21T10:56:33.524Z,43.40
2018-06-21T10:59:01.006Z,42.80
2018-06-21T11:01:28.991Z,44.60
2018-06-21T11:03:56.709Z,44.50
2018-06-21T11:06:24.595Z,44.40
2018-06-21T11:08:54.638Z,45.60
2018-06-21T11:11:22.216Z,40.50
2018-06-21T11:13:49.979Z,43.10
2018-06-21T11:16:17.548Z,42.90
2018-06-21T11:18:45.122Z,44.00
2018-06-21T11:21:17.382Z,43.00
2018-06-21T11:23:44.908Z,43.20
2018-06-21T11:26:12.542Z,44.50
2018-06-21T11:28:40.163Z,42.80
2018-06-21T11:31:07.634Z,42.40
2018-06-21T11:33:35.241Z,43.40
2018-06-21T11:36:02.857Z,43.90
2018-06-21T11:38:30.397Z,43.90
2018-06-21T11:40:57.906Z,43.30
2018-06-21T11:43:25.556Z,42.50
2018-06-21T11:45:53.108Z,43.50
2018-06-21T11:48:20.571Z,44.80
2018-06-21T11:50:48.051Z,43.30
2018-06-21T11:53:16.621Z,43.60
2018-06-21T11:55:44.208Z,42.10
2018-06-21T11:58:14.002Z,42.80
2018-06-21T12:00:41.614Z,43.40
2018-06-21T12:03:09.108Z,44.10
2018-06-21T12:05:36.622Z,43.40
2018-06-21T12:08:04.180Z,43.60
2018-06-21T12:10:31.770Z,44.40
2018-06-21T12:12:59.343Z,43.50
2018-06-21T12:15:28.001Z,44.80
2018-06-21T12:17:55.553Z,44.90
2018-06-21T12:20:23.046Z,45.70
2018-06-21T12:22:50.630Z,43.20
2018-06-21T12:25:18.125Z,43.90
2018-06-21T12:27:45.623Z,45.00
2018-06-21T12:30:13.119Z,47.00
2018-06-21T12:32:40.724Z,47.20
2018-06-21T12:35:08.355Z,43.80
2018-06-21T12:37:35.949Z,47.20
2018-06-21T12:40:03.540Z,44.70
2018-06-21T12:42:31.081Z,43.30
2018-06-21T12:44:58.664Z,43.60
2018-06-21T12:47:27.248Z,43.30
2018-06-21T12:49:54.899Z,43.60
2018-06-21T12:52:22.603Z,43.90
2018-06-21T12:54:50.130Z,44.10
2018-06-21T12:57:17.665Z,44.30
2018-06-21T12:59:45.193Z,44.60
2018-06-21T13:02:12.756Z,43.30
2018-06-21T13:04:40.408Z,42.70
2018-06-21T13:07:07.963Z,43.90
2018-06-21T13:09:46.708Z,43.80
2018-06-21T13:12:27.984Z,43.90
2018-06-21T13:14:56.082Z,42.60
2018-06-21T13:17:24.214Z,45.40
2018-06-21T13:19:51.766Z,45.40
2018-06-21T13:22:20.356Z,46.20
2018-06-21T13:24:47.951Z,46.30
2018-06-21T13:27:15.486Z,45.50
2018-06-21T13:29:43.195Z,43.60
2018-06-21T13:32:10.765Z,44.00
2018-06-21T13:34:38.598Z,44.20
2018-06-21T13:37:06.675Z,45.20
2018-06-21T13:39:34.281Z,44.20
2018-06-21T13:42:01.868Z,45.00
2018-06-21T13:44:29.659Z,45.30
2018-06-21T13:46:57.171Z,44.60
2018-06-21T13:49:24.856Z,45.20
2018-06-21T13:51:52.492Z,47.10
2018-06-21T13:54:20.104Z,46.60
2018-06-21T13:56:47.792Z,46.70
2018-06-21T13:59:17.445Z,46.20
2018-06-21T14:01:45.062Z,46.20
2018-06-21T14:04:12.609Z,44.50
2018-06-21T14:06:40.386Z,45.20
2018-06-21T14:09:09.491Z,45.70
2018-06-21T14:11:37.169Z,44.40
2018-06-21T14:14:04.710Z,45.20
2018-06-21T14:16:32.287Z,44.40
2018-06-21T14:18:59.887Z,45.20
2018-06-21T14:21:27.656Z,46.50
2018-06-21T14:23:55.801Z,46.50
2018-06-21T14:26:23.510Z,45.50
2018-06-21T14:28:51.127Z,44.60
2018-06-21T14:31:18.786Z,46.00
2018-06-21T14:33:46.369Z,45.90
2018-06-21T14:36:13.857Z,47.20
2018-06-21T14:38:41.348Z,46.10
2018-06-21T14:41:08.820Z,46.50
2018-06-21T14:43:36.352Z,44.90
2018-06-21T14:46:03.843Z,45.70
2018-06-21T14:48:31.533Z,46.30
2018-06-21T14:50:58.997Z,46.60
2018-06-21T14:53:26.522Z,46.80
2018-06-21T14:55:54.071Z,46.60
2018-06-21T14:58:21.699Z,47.10
2018-06-21T15:00:49.295Z,47.80
2018-06-21T15:03:16.748Z,48.50
2018-06-21T15:05:44.332Z,48.80
2018-06-21T15:08:11.971Z,48.00
2018-06-21T15:10:39.418Z,48.70
2018-06-21T15:13:06.935Z,49.10
2018-06-21T15:15:34.431Z,49.40
2018-06-21T15:18:01.917Z,49.10
2018-06-21T15:20:29.478Z,49.40
2018-06-21T15:22:57.097Z,47.90
2018-06-21T15:25:24.624Z,47.90
2018-06-21T15:27:52.229Z,48.00
2018-06-21T15:30:19.850Z,48.10
2018-06-21T15:32:47.356Z,48.00
2018-06-21T15:35:14.937Z,47.60
2018-06-21T15:37:42.526Z,48.10
2018-06-21T15:40:10.108Z,47.50
2018-06-21T15:42:37.594Z,48.50
2018-06-21T15:45:05.265Z,47.20
2018-06-21T15:47:32.762Z,46.90
2018-06-21T15:50:00.320Z,47.60
2018-06-21T15:52:27.855Z,47.60
2018-06-21T15:54:55.445Z,49.40
2018-06-21T15:57:22.973Z,47.10
2018-06-21T15:59:50.430Z,49.10
2018-06-21T16:02:18.000Z,48.50
2018-06-21T16:04:45.551Z,48.50
2018-06-21T16:07:13.119Z,48.00
2018-06-21T16:09:40.736Z,48.50
2018-06-21T16:12:08.305Z,47.70
2018-06-21T16:14:35.818Z,48.40
2018-06-21T16:17:03.507Z,45.60
2018-06-21T16:19:31.201Z,44.50
2018-06-21T16:21:58.728Z,44.60
2018-06-21T16:24:26.317Z,45.50
2018-06-21T16:26:53.904Z,46.10
2018-06-21T16:29:21.405Z,45.10
2018-06-21T16:31:49.365Z,43.60
2018-06-21T16:34:16.846Z,43.60
2018-06-21T16:36:44.374Z,44.40
2018-06-21T16:39:11.886Z,44.00
2018-06-21T16:41:39.914Z,42.40
2018-06-21T16:44:07.448Z,43.10
2018-06-21T16:46:35.155Z,43.40
2018-06-21T16:49:02.636Z,42.90
2018-06-21T16:51:30.173Z,42.10
2018-06-21T16:53:57.657Z,40.50
2018-06-21T16:56:25.273Z,42.10
2018-06-21T16:58:52.939Z,41.50
2018-06-21T17:01:20.539Z,42.10
2018-06-21T17:03:48.096Z,42.50
2018-06-21T17:06:15.731Z,41.20
2018-06-21T17:08:43.261Z,41.20
2018-06-21T17:11:11.953Z,41.10
2018-06-21T17:13:39.516Z,41.30
2018-06-21T17:16:06.977Z,41.20
2018-06-21T17:18:34.460Z,41.70
2018-06-21T17:21:01.999Z,41.60
2018-06-21T17:23:29.563Z,41.50
2018-06-21T17:25:57.055Z,41.90
2018-06-21T17:28:24.555Z,41.90
2018-06-21T17:30:52.067Z,41.70
2018-06-21T17:33:19.648Z,39.70
2018-06-21T17:35:47.163Z,39.70
2018-06-21T17:38:14.841Z,40.50
2018-06-21T17:40:42.381Z,39.60
2018-06-21T17:43:09.918Z,39.30
2018-06-21T17:45:37.461Z,39.60
2018-06-21T17:48:05.114Z,39.50
2018-06-21T17:50:32.666Z,39.40
2018-06-21T17:53:00.132Z,39.40
2018-06-21T17:55:27.687Z,39.40
2018-06-21T17:57:55.232Z,39.40
2018-06-21T18:00:22.753Z,39.80
2018-06-21T18:02:51.292Z,39.80
2018-06-21T18:05:18.869Z,39.60
2018-06-21T18:07:46.493Z,38.20
2018-06-21T18:10:14.064Z,37.60
2018-06-21T18:12:41.604Z,38.10
2018-06-21T18:15:09.217Z,37.40
2018-06-21T18:17:36.767Z,36.60
2018-06-21T18:20:04.375Z,36.60
2018-06-21T18:22:31.884Z,36.20
2018-06-21T18:24:59.500Z,35.40
2018-06-21T18:27:27.120Z,36.60
2018-06-21T18:29:54.672Z,36.70
2018-06-21T18:32:22.299Z,36.50
2018-06-21T18:34:49.888Z,36.60
2018-06-21T18:37:17.340Z,36.60
2018-06-21T18:39:44.834Z,37.20
2018-06-21T18:42:12.389Z,37.90
2018-06-21T18:44:39.955Z,37.50
2018-06-21T18:47:07.587Z,37.90
2018-06-21T18:49:35.039Z,38.20
2018-06-21T18:52:02.603Z,38.20
2018-06-21T18:54:30.081Z,38.20
2018-06-21T18:56:57.746Z,38.60
2018-06-21T18:59:25.436Z,39.40
2018-06-21T19:01:53.117Z,39.80
2018-06-21T19:04:20.749Z,40.00
2018-06-21T19:06:54.028Z,39.70
2018-06-21T19:09:27.382Z,39.20
2018-06-21T19:11:55.044Z,39.20
2018-06-21T19:14:22.563Z,38.40
2018-06-21T19:16:50.211Z,38.10
2018-06-21T19:19:17.779Z,37.70
2018-06-21T19:21:45.396Z,37.90
2018-06-21T19:24:12.977Z,37.30
2018-06-21T19:26:40.486Z,37.20
2018-06-21T19:29:08.048Z,36.10
2018-06-21T19:31:35.686Z,37.00
2018-06-21T19:34:03.213Z,37.00
2018-06-21T19:36:30.789Z,36.90
2018-06-21T19:38:58.294Z,36.90
2018-06-21T19:41:25.816Z,36.10
2018-06-21T19:43:53.461Z,36.10
2018-06-21T19:46:21.118Z,36.70
2018-06-21T19:48:48.620Z,36.50
2018-06-21T19:51:16.183Z,35.80
2018-06-21T19:53:43.716Z,35.20
2018-06-21T19:56:11.316Z,35.30
2018-06-21T19:58:46.217Z,35.40
2018-06-21T20:01:15.186Z,35.40
2018-06-21T20:03:42.745Z,35.70
2018-06-21T20:06:10.315Z,36.00
2018-06-21T20:08:37.885Z,36.20
2018-06-21T20:11:12.221Z,36.60
2018-06-21T20:13:48.627Z,37.00
2018-06-21T20:16:17.222Z,37.00
2018-06-21T20:18:44.812Z,36.90
2018-06-21T20:21:14.541Z,36.60
2018-06-21T20:23:43.922Z,36.60
2018-06-21T20:26:12.708Z,37.00
2018-06-21T20:28:40.660Z,37.70
2018-06-21T20:31:09.751Z,35.90
2018-06-21T20:33:37.367Z,35.40
2018-06-21T20:36:05.173Z,36.80
2018-06-21T20:38:32.985Z,36.10
2018-06-21T20:41:00.654Z,36.20
2018-06-21T20:43:28.390Z,37.00
2018-06-21T20:45:55.918Z,36.30
2018-06-21T20:48:23.376Z,36.90
2018-06-21T20:50:51.022Z,36.70
2018-06-21T20:53:18.556Z,37.30
2018-06-21T20:55:46.140Z,36.80
2018-06-21T20:58:13.642Z,36.60
2018-06-21T21:00:41.319Z,36.30
2018-06-21T21:03:08.907Z,36.40
2018-06-21T21:05:36.361Z,35.70
2018-06-21T21:08:03.899Z,35.40
2018-06-21T21:10:31.379Z,35.30
2018-06-21T21:12:58.875Z,36.20
2018-06-21T21:15:26.367Z,36.00
2018-06-21T21:17:53.822Z,36.20
2018-06-21T21:20:21.391Z,37.00
2018-06-21T21:22:48.916Z,37.00
2018-06-21T21:25:16.456Z,37.10
2018-06-21T21:27:43.988Z,37.20
2018-06-21T21:30:11.473Z,37.40
2018-06-21T21:32:39.802Z,37.50
2018-06-21T21:35:07.417Z,37.70
2018-06-21T21:37:34.985Z,37.50
2018-06-21T21:40:05.571Z,38.00
2018-06-21T21:42:34.410Z,37.70
2018-06-21T21:45:01.902Z,37.90
2018-06-21T21:47:29.441Z,37.80
2018-06-21T21:49:56.926Z,38.20
2018-06-21T21:52:24.473Z,38.30
2018-06-21T21:54:51.979Z,38.40
2018-06-21T21:57:19.531Z,38.20
2018-06-21T21:59:47.578Z,37.80
2018-06-21T22:02:15.448Z,38.40
2018-06-21T22:04:43.054Z,38.30
2018-06-21T22:07:10.583Z,38.30
2018-06-21T22:09:38.042Z,38.50
2018-06-21T22:12:05.762Z,39.20
2018-06-21T22:14:33.224Z,38.70
2018-06-21T22:17:00.645Z,39.10
2018-06-21T22:19:28.156Z,39.30
2018-06-21T22:21:55.586Z,39.50
2018-06-21T22:24:23.218Z,39.70
2018-06-21T22:26:50.665Z,39.70
2018-06-21T22:29:18.198Z,39.50
2018-06-21T22:31:45.750Z,40.50
2018-06-21T22:34:13.209Z,40.00
2018-06-21T22:36:40.772Z,40.20
2018-06-21T22:39:10.073Z,40.90
2018-06-21T22:41:37.630Z,40.70
2018-06-21T22:44:05.198Z,41.40
2018-06-21T22:46:32.639Z,42.00
2018-06-21T22:49:00.185Z,41.90
2018-06-21T22:51:27.759Z,41.70
2018-06-21T22:53:55.209Z,42.30
2018-06-21T22:56:23.798Z,42.30
2018-06-21T22:58:51.245Z,43.10
2018-06-21T23:01:18.790Z,43.00
2018-06-21T23:03:46.283Z,43.20
2018-06-21T23:06:13.755Z,43.50
2018-06-21T23:08:41.361Z,43.80
2018-06-21T23:11:08.804Z,43.80
2018-06-21T23:13:36.306Z,44.10
2018-06-21T23:16:03.882Z,44.20
2018-06-21T23:18:42.761Z,44.70
2018-06-21T23:21:10.379Z,44.60
2018-06-21T23:23:37.882Z,45.00
2018-06-21T23:26:05.512Z,44.80
2018-06-21T23:28:33.317Z,44.50
2018-06-21T23:31:01.077Z,44.90
2018-06-21T23:33:28.583Z,44.70
2018-06-21T23:35:56.140Z,44.80
2018-06-21T23:38:23.578Z,45.00
2018-06-21T23:40:51.101Z,45.10
2018-06-21T23:43:18.799Z,45.50
2018-06-21T23:45:48.283Z,45.50
2018-06-21T23:48:15.704Z,45.80
2018-06-21T23:50:43.342Z,45.90
2018-06-21T23:53:10.798Z,45.90
2018-06-21T23:55:38.280Z,46.30
2018-06-21T23:58:05.700Z,46.50
